createdAt,value
2022-11-03T00:01:47.716Z,7.80
2022-11-03T00:06:52.035Z,7.70
2022-11-03T00:11:53.934Z,7.70
2022-11-03T00:16:55.774Z,7.80
2022-11-03T00:21:59.398Z,7.70
2022-11-03T00:27:01.579Z,7.70
2022-11-03T00:32:03.402Z,7.50
2022-11-03T00:37:05.318Z,7.40
2022-11-03T00:42:07.247Z,7.40
2022-11-03T00:47:09.124Z,7.30
2022-11-03T00:52:10.967Z,7.30
2022-11-03T00:57:12.871Z,7.30
2022-11-03T01:02:14.813Z,7.20
2022-11-03T01:07:20.151Z,7.20
2022-11-03T01:12:21.981Z,7.10
2022-11-03T01:17:25.866Z,7.10
2022-11-03T01:22:27.932Z,7.00
2022-11-03T01:27:29.775Z,7.00
2022-11-03T01:32:31.618Z,7.00
2022-11-03T01:37:33.426Z,6.90
2022-11-03T01:42:35.250Z,6.90
2022-11-03T01:47:37.468Z,7.00
2022-11-03T01:52:45.573Z,6.90
2022-11-03T01:57:49.855Z,7.00
2022-11-03T02:02:51.759Z,6.90
2022-11-03T02:07:57.213Z,6.90
2022-11-03T02:12:59.348Z,6.80
2022-11-03T02:18:02.955Z,6.80
2022-11-03T02:23:08.161Z,6.80
2022-11-03T02:28:11.228Z,6.70
2022-11-03T02:33:31.433Z,6.70
2022-11-03T02:38:35.219Z,6.70
2022-11-03T02:43:38.023Z,6.60
2022-11-03T02:48:39.974Z,6.60
2022-11-03T02:53:58.948Z,6.60
2022-11-03T02:59:03.333Z,6.60
2022-11-03T03:04:08.324Z,6.60
2022-11-03T03:09:21.936Z,6.60
2022-11-03T03:14:30.747Z,6.60
2022-11-03T03:19:59.717Z,6.50
2022-11-03T03:25:05.091Z,6.40
2022-11-03T03:30:08.398Z,6.40
2022-11-03T03:35:20.178Z,6.40
2022-11-03T03:40:25.950Z,6.40
2022-11-03T03:45:28.574Z,6.30
2022-11-03T03:50:33.173Z,6.20
2022-11-03T03:55:40.749Z,6.20
2022-11-03T04:00:42.916Z,6.20
2022-11-03T04:05:45.266Z,6.20
2022-11-03T04:11:06.497Z,6.20
2022-11-03T04:16:28.271Z,6.30
2022-11-03T04:21:48.676Z,6.30
2022-11-03T04:26:50.571Z,6.30
2022-11-03T04:31:52.389Z,6.20
2022-11-03T04:36:54.232Z,6.20
2022-11-03T04:41:56.050Z,6.10
2022-11-03T04:46:57.894Z,6.10
2022-11-03T04:51:59.773Z,6.10
2022-11-03T04:57:08.912Z,6.10
2022-11-03T05:02:14.201Z,6.00
2022-11-03T05:07:31.617Z,6.00
2022-11-03T05:12:33.591Z,6.00
2022-11-03T05:17:37.104Z,5.90
2022-11-03T05:22:38.954Z,5.80
2022-11-03T05:27:40.786Z,5.80
2022-11-03T05:32:42.601Z,5.80
2022-11-03T05:37:44.671Z,5.90
2022-11-03T05:42:47.270Z,6.00
2022-11-03T05:47:49.445Z,6.10
2022-11-03T05:52:57.294Z,6.20
2022-11-03T05:58:15.211Z,6.20
2022-11-03T06:03:22.902Z,6.40
2022-11-03T06:08:28.003Z,6.40
2022-11-03T06:13:35.704Z,6.50
2022-11-03T06:18:38.256Z,6.50
2022-11-03T06:23:40.611Z,6.70
2022-11-03T06:28:42.636Z,6.80
2022-11-03T06:33:44.572Z,6.80
2022-11-03T06:39:04.069Z,6.90
2022-11-03T06:44:26.641Z,6.90
2022-11-03T06:49:31.122Z,7.00
2022-11-03T06:54:32.944Z,7.10
2022-11-03T06:59:34.767Z,7.20
2022-11-03T07:04:41.826Z,7.30
2022-11-03T07:09:47.850Z,7.40
2022-11-03T07:14:50.762Z,7.60
2022-11-03T07:19:53.028Z,7.70
2022-11-03T07:25:01.179Z,7.90
2022-11-03T07:30:16.233Z,8.20
2022-11-03T07:35:47.043Z,8.40
2022-11-03T07:40:53.218Z,8.60
2022-11-03T07:46:00.718Z,8.80
2022-11-03T07:51:36.426Z,9.10
2022-11-03T07:56:55.432Z,9.90
2022-11-03T08:01:58.579Z,10.40
2022-11-03T08:07:00.572Z,10.50
2022-11-03T08:12:02.423Z,10.50
2022-11-03T08:17:04.993Z,10.60
2022-11-03T08:22:06.835Z,10.80
2022-11-03T08:27:08.699Z,11.00
2022-11-03T08:32:10.880Z,11.50
2022-11-03T08:37:12.879Z,12.10
2022-11-03T08:42:14.703Z,12.50
2022-11-03T08:47:16.536Z,13.10
2022-11-03T08:52:18.497Z,13.30
2022-11-03T08:57:20.317Z,13.40
2022-11-03T09:02:22.531Z,13.40
2022-11-03T09:07:24.480Z,13.50
2022-11-03T09:12:26.570Z,13.70
2022-11-03T09:17:28.496Z,14.00
2022-11-03T09:23:01.204Z,14.00
2022-11-03T09:28:03.074Z,14.30
2022-11-03T09:33:05.038Z,14.60
2022-11-03T09:38:07.949Z,14.70
2022-11-03T09:43:11.451Z,14.80
2022-11-03T09:48:13.728Z,15.10
2022-11-03T09:53:15.557Z,15.20
2022-11-03T09:58:18.115Z,15.40
2022-11-03T10:03:20.862Z,15.60
2022-11-03T10:08:23.723Z,15.50
2022-11-03T10:13:30.922Z,15.40
2022-11-03T10:18:34.403Z,15.30
2022-11-03T10:23:36.269Z,15.30
2022-11-03T10:28:38.415Z,15.40
2022-11-03T10:33:54.708Z,15.40
2022-11-03T10:39:29.236Z,15.40
2022-11-03T10:44:31.281Z,15.60
2022-11-03T10:49:39.379Z,15.70
2022-11-03T10:54:42.881Z,15.60
2022-11-03T10:59:46.375Z,15.60
2022-11-03T11:04:49.697Z,15.80
2022-11-03T11:09:52.311Z,16.00
2022-11-03T11:14:59.603Z,16.10
2022-11-03T11:20:24.161Z,16.20
2022-11-03T11:26:04.190Z,16.20
2022-11-03T11:31:32.386Z,16.30
2022-11-03T11:36:34.511Z,16.10
2022-11-03T11:42:07.447Z,16.20
2022-11-03T11:47:29.191Z,16.30
2022-11-03T11:52:46.705Z,16.10
2022-11-03T11:57:48.605Z,16.10
2022-11-03T12:02:52.047Z,16.20
2022-11-03T12:08:59.216Z,16.20
2022-11-03T12:14:01.213Z,16.20
2022-11-03T12:19:41.855Z,16.10
2022-11-03T12:24:49.685Z,15.90
2022-11-03T12:30:00.959Z,15.80
2022-11-03T12:35:04.105Z,15.80
2022-11-03T12:40:07.193Z,15.80
2022-11-03T12:45:09.557Z,15.80
2022-11-03T12:50:14.312Z,15.80
2022-11-03T12:55:16.489Z,15.80
2022-11-03T13:00:18.834Z,15.80
2022-11-03T13:05:20.676Z,15.80
2022-11-03T13:10:22.583Z,15.80
2022-11-03T13:15:24.438Z,15.90
2022-11-03T13:20:26.282Z,15.90
2022-11-03T13:25:29.241Z,15.90
2022-11-03T13:30:31.568Z,16.00
2022-11-03T13:35:33.444Z,16.00
2022-11-03T13:40:55.597Z,16.10
2022-11-03T13:46:02.627Z,16.10
2022-11-03T13:51:04.683Z,16.00
2022-11-03T13:56:13.132Z,16.00
2022-11-03T14:01:15.262Z,16.00
2022-11-03T14:06:17.192Z,16.00
2022-11-03T14:11:37.515Z,16.00
2022-11-03T14:16:39.506Z,16.00
2022-11-03T14:21:42.891Z,15.90
2022-11-03T14:26:44.940Z,15.80
2022-11-03T14:31:46.789Z,15.70
2022-11-03T14:36:48.878Z,15.70
2022-11-03T14:42:04.055Z,15.60
2022-11-03T14:47:09.074Z,15.50
2022-11-03T14:52:10.991Z,15.40
2022-11-03T14:57:37.788Z,15.40
2022-11-03T15:02:39.775Z,15.30
2022-11-03T15:07:42.708Z,15.20
2022-11-03T15:12:44.527Z,15.10
2022-11-03T15:17:48.876Z,15.00
2022-11-03T15:28:12.626Z,14.90
2022-11-03T15:33:20.165Z,14.90
2022-11-03T15:38:22.029Z,14.70
2022-11-03T15:43:23.912Z,14.70
2022-11-03T15:48:26.885Z,14.70
2022-11-03T15:53:30.411Z,14.60
2022-11-03T15:58:47.435Z,14.60
2022-11-03T16:03:49.300Z,14.50
2022-11-03T16:08:51.146Z,14.40
2022-11-03T16:13:53.286Z,14.30
2022-11-03T16:18:55.119Z,14.20
2022-11-03T16:24:07.023Z,14.10
2022-11-03T16:29:09.636Z,14.10
2022-11-03T16:34:11.516Z,13.90
2022-11-03T16:39:13.366Z,13.80
2022-11-03T16:44:15.199Z,13.70
2022-11-03T16:49:17.203Z,13.50
2022-11-03T16:54:19.091Z,13.30
2022-11-03T16:59:24.265Z,13.20
2022-11-03T17:04:48.098Z,13.00
2022-11-03T17:09:49.909Z,12.90
2022-11-03T17:14:55.587Z,12.90
2022-11-03T17:19:58.939Z,12.80
2022-11-03T17:25:01.730Z,12.80
2022-11-03T17:30:10.996Z,12.70
2022-11-03T17:35:21.407Z,12.60
2022-11-03T17:40:25.766Z,12.60
2022-11-03T17:45:29.265Z,12.60
2022-11-03T17:50:31.106Z,12.60
2022-11-03T17:55:33.405Z,12.50
2022-11-03T18:00:36.586Z,12.50
2022-11-03T18:05:40.959Z,12.50
2022-11-03T18:10:45.623Z,12.50
2022-11-03T18:16:02.579Z,12.40
2022-11-03T18:21:05.123Z,12.40
2022-11-03T18:26:21.578Z,12.30
2022-11-03T18:31:34.095Z,12.30
2022-11-03T18:36:37.551Z,12.20
2022-11-03T18:41:40.411Z,12.10
2022-11-03T18:46:42.502Z,12.00
2022-11-03T18:52:07.006Z,11.90
2022-11-03T18:57:11.108Z,11.90
2022-11-03T19:02:19.942Z,11.80
2022-11-03T19:07:25.623Z,11.70
2022-11-03T19:12:27.506Z,11.70
2022-11-03T19:17:31.031Z,11.60
2022-11-03T19:22:38.197Z,11.50
2022-11-03T19:27:44.046Z,11.40
2022-11-03T19:32:54.186Z,11.30
2022-11-03T19:38:03.945Z,11.20
2022-11-03T19:43:09.331Z,11.20
2022-11-03T19:48:24.463Z,11.10
2022-11-03T19:53:37.412Z,11.00
2022-11-03T19:58:39.608Z,10.90
2022-11-03T20:03:41.616Z,10.80
2022-11-03T20:08:45.211Z,10.80
2022-11-03T20:13:47.050Z,10.80
2022-11-03T20:18:48.980Z,10.70
2022-11-03T20:23:51.334Z,10.70
2022-11-03T20:28:54.498Z,10.60
2022-11-03T20:33:56.370Z,10.60
2022-11-03T20:39:01.186Z,10.60
2022-11-03T20:44:03.039Z,10.60
2022-11-03T20:49:07.088Z,10.50
2022-11-03T20:54:20.397Z,10.60
2022-11-03T20:59:24.692Z,10.50
2022-11-03T21:04:27.663Z,10.60
2022-11-03T21:09:29.508Z,10.60
2022-11-03T21:14:35.153Z,10.60
2022-11-03T21:19:55.710Z,10.60
2022-11-03T21:24:57.552Z,10.60
2022-11-03T21:30:00.150Z,10.60
2022-11-03T21:35:02.380Z,10.60
2022-11-03T21:40:04.502Z,10.60
2022-11-03T21:45:06.964Z,10.50
2022-11-03T21:50:09.237Z,10.50
2022-11-03T21:55:11.706Z,10.50
2022-11-03T22:00:14.267Z,10.60
2022-11-03T22:05:16.145Z,10.60
2022-11-03T22:10:19.675Z,10.60
2022-11-03T22:15:40.732Z,10.50
2022-11-03T22:21:01.956Z,10.50
2022-11-03T22:26:22.256Z,10.50
2022-11-03T22:31:42.230Z,10.50
2022-11-03T22:36:44.346Z,10.40
2022-11-03T22:42:06.502Z,10.40
2022-11-03T22:47:08.966Z,10.40
2022-11-03T22:52:11.236Z,10.40
2022-11-03T22:57:13.309Z,10.40
2022-11-03T23:02:15.219Z,10.40
2022-11-03T23:07:17.078Z,10.40
2022-11-03T23:12:18.912Z,10.30
2022-11-03T23:17:40.811Z,10.40
2022-11-03T23:22:43.755Z,10.40
2022-11-03T23:27:45.660Z,10.40
2022-11-03T23:32:47.491Z,10.40
2022-11-03T23:37:54.988Z,10.40
2022-11-03T23:42:56.800Z,10.50
2022-11-03T23:48:17.226Z,10.50
2022-11-03T23:53:19.052Z,10.50
2022-11-03T23:58:21.633Z,10.50
